createdAt,value
2016-07-06T00:00:21.856Z,65.95
2016-07-06T00:01:21.885Z,65.66
2016-07-06T00:02:21.882Z,65.95
2016-07-06T00:03:21.877Z,65.56
2016-07-06T00:04:21.914Z,66.05
2016-07-06T00:05:21.904Z,65.95
2016-07-06T00:06:21.933Z,65.56
2016-07-06T00:07:21.930Z,66.05
2016-07-06T00:08:21.939Z,65.95
2016-07-06T00:09:21.938Z,65.95
2016-07-06T00:10:21.949Z,65.56
2016-07-06T00:11:21.972Z,65.95
2016-07-06T00:12:21.985Z,65.66
2016-07-06T00:13:21.977Z,65.56
2016-07-06T00:14:21.993Z,65.56
2016-07-06T00:15:22.007Z,66.05
2016-07-06T00:16:22.009Z,66.14
2016-07-06T00:17:22.024Z,65.95
2016-07-06T00:18:22.027Z,65.75
2016-07-06T00:19:22.040Z,65.85
2016-07-06T00:20:22.041Z,65.95
2016-07-06T00:21:22.069Z,65.95
2016-07-06T00:22:22.080Z,65.95
2016-07-06T00:23:22.074Z,65.85
2016-07-06T00:24:22.084Z,65.95
2016-07-06T00:25:22.101Z,65.95
2016-07-06T00:26:22.193Z,65.95
2016-07-06T00:27:22.100Z,65.85
2016-07-06T00:28:22.106Z,65.85
2016-07-06T00:29:22.120Z,66.05
2016-07-06T00:30:22.131Z,65.95
2016-07-06T00:31:22.158Z,66.05
2016-07-06T00:32:22.150Z,66.05
2016-07-06T00:33:22.161Z,66.05
2016-07-06T00:34:22.174Z,66.14
2016-07-06T00:35:22.794Z,65.85
2016-07-06T00:36:22.191Z,66.05
2016-07-06T00:37:22.200Z,66.14
2016-07-06T00:38:22.219Z,66.14
2016-07-06T00:39:22.222Z,66.05
2016-07-06T00:40:22.237Z,66.05
2016-07-06T00:41:22.254Z,66.14
2016-07-06T00:42:22.255Z,66.05
2016-07-06T00:43:22.269Z,65.95
2016-07-06T00:44:22.275Z,65.85
2016-07-06T00:45:22.273Z,65.85
2016-07-06T00:46:22.285Z,65.85
2016-07-06T00:47:22.297Z,65.95
2016-07-06T00:48:22.300Z,66.05
2016-07-06T00:49:22.333Z,65.85
2016-07-06T00:50:22.331Z,65.95
2016-07-06T00:51:22.340Z,65.75
2016-07-06T00:52:22.324Z,65.85
2016-07-06T00:53:22.356Z,66.14
2016-07-06T00:54:22.347Z,66.14
2016-07-06T00:55:22.368Z,66.05
2016-07-06T00:56:22.369Z,65.85
2016-07-06T00:57:22.400Z,66.05
2016-07-06T00:58:22.402Z,66.05
2016-07-06T00:59:22.403Z,66.05
2016-07-06T01:00:22.413Z,66.05
2016-07-06T01:01:22.439Z,65.95
2016-07-06T01:02:22.440Z,66.05
2016-07-06T01:03:22.436Z,65.85
2016-07-06T01:04:22.445Z,65.85
2016-07-06T01:05:23.072Z,65.95
2016-07-06T01:06:22.482Z,65.95
2016-07-06T01:07:22.477Z,65.85
2016-07-06T01:08:22.531Z,65.85
2016-07-06T01:09:22.624Z,66.05
2016-07-06T01:10:22.676Z,65.95
2016-07-06T01:11:22.695Z,65.95
2016-07-06T01:12:22.535Z,65.75
2016-07-06T01:13:22.541Z,65.85
2016-07-06T01:14:22.546Z,65.85
2016-07-06T01:15:22.553Z,65.85
2016-07-06T01:16:22.574Z,66.05
2016-07-06T01:17:22.580Z,65.95
2016-07-06T01:18:22.571Z,65.95
2016-07-06T01:19:22.607Z,66.05
2016-07-06T01:20:22.606Z,65.85
2016-07-06T01:21:22.600Z,65.95
2016-07-06T01:22:22.616Z,65.95
2016-07-06T01:23:22.619Z,65.95
2016-07-06T01:24:22.613Z,65.95
2016-07-06T01:25:22.639Z,65.95
2016-07-06T01:26:22.633Z,65.95
2016-07-06T01:27:22.678Z,65.85
2016-07-06T01:28:22.670Z,65.95
2016-07-06T01:29:22.664Z,65.95
2016-07-06T01:30:22.704Z,65.85
2016-07-06T01:31:22.699Z,65.95
2016-07-06T01:32:22.695Z,66.05
2016-07-06T01:33:22.704Z,65.95
2016-07-06T01:34:22.726Z,65.95
2016-07-06T01:35:22.740Z,65.95
2016-07-06T01:36:22.736Z,65.95
2016-07-06T01:37:22.747Z,65.95
2016-07-06T01:38:22.756Z,65.85
2016-07-06T01:39:22.786Z,65.95
2016-07-06T01:40:22.773Z,65.75
2016-07-06T01:41:22.792Z,65.95
2016-07-06T01:42:22.790Z,65.75
2016-07-06T01:43:22.800Z,65.75
2016-07-06T01:44:22.814Z,65.66
2016-07-06T01:45:22.828Z,65.95
2016-07-06T01:46:22.835Z,66.05
2016-07-06T01:47:22.847Z,65.85
2016-07-06T01:48:22.847Z,65.95
2016-07-06T01:49:22.877Z,65.85
2016-07-06T01:50:22.869Z,66.01
2016-07-06T01:51:22.891Z,65.95
2016-07-06T01:52:22.893Z,65.95
2016-07-06T01:53:22.898Z,65.95
2016-07-06T01:54:22.896Z,65.85
2016-07-06T01:55:22.910Z,66.05
2016-07-06T01:56:22.953Z,65.95
2016-07-06T01:57:22.924Z,65.95
2016-07-06T01:58:22.935Z,66.05
2016-07-06T01:59:22.952Z,65.85
2016-07-06T02:00:22.955Z,65.95
2016-07-06T02:01:22.966Z,65.95
2016-07-06T02:02:22.982Z,65.85
2016-07-06T02:03:23.001Z,65.95
2016-07-06T02:04:23.002Z,65.85
2016-07-06T02:05:23.007Z,65.85
2016-07-06T02:06:23.032Z,65.75
2016-07-06T02:07:23.037Z,65.95
2016-07-06T02:08:23.040Z,65.95
2016-07-06T02:09:23.062Z,65.91
2016-07-06T02:10:23.041Z,65.95
2016-07-06T02:11:23.685Z,65.85
2016-07-06T02:12:23.077Z,66.05
2016-07-06T02:13:23.097Z,65.95
2016-07-06T02:14:23.090Z,65.75
2016-07-06T02:15:23.100Z,66.11
2016-07-06T02:16:23.117Z,66.05
2016-07-06T02:17:23.118Z,65.95
2016-07-06T02:18:23.144Z,65.95
2016-07-06T02:19:23.142Z,65.95
2016-07-06T02:20:23.146Z,66.05
2016-07-06T02:21:23.165Z,66.05
2016-07-06T02:22:23.152Z,65.95
2016-07-06T02:23:23.783Z,66.05
2016-07-06T02:24:23.197Z,66.14
2016-07-06T02:25:23.206Z,65.95
2016-07-06T02:26:23.188Z,65.95
2016-07-06T02:27:23.211Z,66.05
2016-07-06T02:28:23.223Z,65.75
2016-07-06T02:29:23.225Z,65.72
2016-07-06T02:30:23.239Z,66.05
2016-07-06T02:31:23.251Z,66.05
2016-07-06T02:32:23.249Z,65.91
2016-07-06T02:33:23.248Z,65.91
2016-07-06T02:34:23.273Z,65.82
2016-07-06T02:35:23.291Z,65.95
2016-07-06T02:36:23.282Z,65.95
2016-07-06T02:37:23.307Z,65.91
2016-07-06T02:38:23.306Z,66.01
2016-07-06T02:39:23.325Z,65.91
2016-07-06T02:40:23.317Z,66.01
2016-07-06T02:41:23.328Z,65.91
2016-07-06T02:42:23.337Z,65.82
2016-07-06T02:43:23.349Z,65.91
2016-07-06T02:44:23.364Z,65.95
2016-07-06T02:45:23.395Z,66.01
2016-07-06T02:46:23.371Z,65.82
2016-07-06T02:47:23.401Z,65.82
2016-07-06T02:48:23.397Z,65.85
2016-07-06T02:49:23.411Z,66.01
2016-07-06T02:50:23.411Z,66.01
2016-07-06T02:51:23.434Z,66.01
2016-07-06T02:52:23.441Z,65.72
2016-07-06T02:53:23.448Z,65.72
2016-07-06T02:54:23.453Z,66.14
2016-07-06T02:55:23.469Z,65.91
2016-07-06T02:56:24.091Z,65.63
2016-07-06T02:57:23.471Z,66.01
2016-07-06T02:58:23.496Z,65.82
2016-07-06T02:59:23.493Z,65.91
2016-07-06T03:00:23.493Z,65.63
2016-07-06T03:01:23.513Z,65.95
2016-07-06T03:02:24.135Z,66.01
2016-07-06T03:03:23.538Z,65.91
2016-07-06T03:04:23.541Z,65.91
2016-07-06T03:05:23.552Z,66.05
2016-07-06T03:06:23.553Z,65.82
2016-07-06T03:07:23.567Z,65.63
2016-07-06T03:08:23.582Z,65.82
2016-07-06T03:09:23.566Z,65.82
2016-07-06T03:10:23.584Z,66.11
2016-07-06T03:11:23.605Z,65.72
2016-07-06T03:12:23.608Z,65.63
2016-07-06T03:13:23.603Z,65.91
2016-07-06T03:14:23.643Z,66.01
2016-07-06T03:15:23.635Z,66.11
2016-07-06T03:16:23.648Z,65.91
2016-07-06T03:17:23.637Z,65.72
2016-07-06T03:18:23.662Z,65.72
2016-07-06T03:19:23.691Z,65.72
2016-07-06T03:20:23.685Z,65.91
2016-07-06T03:21:23.672Z,66.01
2016-07-06T03:22:23.681Z,66.01
2016-07-06T03:23:23.701Z,65.72
2016-07-06T03:24:23.735Z,65.72
2016-07-06T03:25:23.736Z,65.91
2016-07-06T03:26:23.735Z,65.91
2016-07-06T03:27:23.771Z,66.11
2016-07-06T03:28:23.751Z,66.11
2016-07-06T03:29:23.755Z,65.72
2016-07-06T03:30:23.770Z,65.72
2016-07-06T03:31:23.786Z,65.72
2016-07-06T03:32:23.786Z,65.91
2016-07-06T03:33:23.816Z,65.53
2016-07-06T03:34:23.823Z,65.91
2016-07-06T03:35:23.833Z,66.01
2016-07-06T03:36:23.830Z,65.72
2016-07-06T03:37:23.826Z,66.01
2016-07-06T03:38:23.839Z,66.01
2016-07-06T03:39:23.871Z,65.91
2016-07-06T03:40:23.863Z,66.01
2016-07-06T03:41:23.888Z,65.91
2016-07-06T03:42:23.878Z,65.91
2016-07-06T03:43:23.892Z,66.05
2016-07-06T03:44:23.909Z,66.01
2016-07-06T03:45:23.909Z,65.82
2016-07-06T03:46:23.922Z,65.91
2016-07-06T03:47:23.935Z,66.01
2016-07-06T03:48:23.927Z,66.11
2016-07-06T03:49:23.936Z,66.01
2016-07-06T03:50:23.954Z,65.82
2016-07-06T03:51:23.939Z,65.53
2016-07-06T03:52:23.986Z,66.11
2016-07-06T03:53:23.978Z,65.53
2016-07-06T03:54:23.981Z,65.91
2016-07-06T03:55:24.016Z,65.66
2016-07-06T03:56:24.001Z,66.01
2016-07-06T03:57:24.017Z,66.01
2016-07-06T03:58:24.009Z,65.63
2016-07-06T03:59:24.050Z,65.72
2016-07-06T04:00:24.037Z,66.11
2016-07-06T04:01:24.059Z,65.53
2016-07-06T04:02:24.058Z,65.53
2016-07-06T04:03:24.064Z,65.53
2016-07-06T04:04:24.094Z,65.53
2016-07-06T04:05:24.703Z,65.34
2016-07-06T04:06:24.113Z,65.56
2016-07-06T04:07:24.107Z,65.72
2016-07-06T04:08:24.126Z,65.63
2016-07-06T04:09:24.132Z,65.72
2016-07-06T04:10:24.132Z,65.56
2016-07-06T04:11:24.140Z,65.43
2016-07-06T04:12:24.158Z,65.72
2016-07-06T04:13:24.148Z,65.72
2016-07-06T04:14:24.157Z,65.43
2016-07-06T04:15:24.191Z,65.75
2016-07-06T04:16:24.191Z,65.63
2016-07-06T04:17:24.212Z,65.63
2016-07-06T04:18:24.207Z,65.72
2016-07-06T04:19:24.228Z,65.43
2016-07-06T04:20:24.225Z,65.63
2016-07-06T04:21:24.236Z,65.43
2016-07-06T04:22:24.238Z,65.43
2016-07-06T04:23:24.262Z,65.63
2016-07-06T04:24:24.273Z,65.72
2016-07-06T04:25:24.272Z,65.63
2016-07-06T04:26:24.263Z,65.43
2016-07-06T04:27:24.296Z,65.63
2016-07-06T04:28:24.289Z,65.63
2016-07-06T04:29:24.291Z,65.82
2016-07-06T04:30:24.315Z,65.82
2016-07-06T04:31:24.320Z,65.82
2016-07-06T04:32:24.329Z,65.72
2016-07-06T04:33:24.350Z,65.53
2016-07-06T04:34:24.342Z,65.72
2016-07-06T04:35:24.350Z,65.82
2016-07-06T04:36:24.377Z,65.43
2016-07-06T04:37:24.368Z,65.63
2016-07-06T04:38:24.393Z,65.82
2016-07-06T04:39:24.409Z,65.72
2016-07-06T04:40:24.399Z,65.91
2016-07-06T04:41:24.410Z,65.72
2016-07-06T04:42:24.434Z,65.85
2016-07-06T04:43:24.437Z,65.63
2016-07-06T04:44:24.448Z,65.82
2016-07-06T04:45:24.437Z,65.82
2016-07-06T04:46:24.447Z,65.91
2016-07-06T04:47:24.474Z,65.82
2016-07-06T04:48:24.476Z,65.82
2016-07-06T04:49:24.480Z,65.91
2016-07-06T04:50:24.479Z,65.63
2016-07-06T04:51:24.504Z,65.63
2016-07-06T04:52:24.522Z,65.72
2016-07-06T04:53:24.501Z,65.72
2016-07-06T04:54:24.538Z,65.56
2016-07-06T04:55:24.532Z,65.43
2016-07-06T04:56:24.556Z,65.43
2016-07-06T04:57:24.543Z,65.24
2016-07-06T04:58:24.562Z,65.27
2016-07-06T04:59:24.571Z,65.27
2016-07-06T05:00:24.588Z,65.47
2016-07-06T05:01:25.185Z,65.37
2016-07-06T05:02:24.601Z,65.47
2016-07-06T05:03:24.615Z,64.98
2016-07-06T05:04:24.605Z,65.37
2016-07-06T05:05:24.609Z,64.86
2016-07-06T05:06:24.642Z,65.47
2016-07-06T05:07:24.638Z,64.86
2016-07-06T05:08:24.631Z,65.17
2016-07-06T05:09:24.669Z,65.37
2016-07-06T05:10:24.671Z,65.17
2016-07-06T05:11:24.675Z,65.27
2016-07-06T05:12:24.695Z,65.17
2016-07-06T05:13:24.687Z,65.17
2016-07-06T05:14:24.699Z,65.17
2016-07-06T05:15:24.722Z,65.27
2016-07-06T05:16:24.731Z,65.17
2016-07-06T05:17:24.752Z,65.08
2016-07-06T05:18:24.748Z,65.17
2016-07-06T05:19:24.746Z,65.37
2016-07-06T05:20:24.757Z,64.89
2016-07-06T05:21:24.786Z,64.98
2016-07-06T05:22:24.771Z,65.08
2016-07-06T05:23:24.798Z,64.98
2016-07-06T05:24:24.788Z,65.17
2016-07-06T05:25:24.801Z,64.89
2016-07-06T05:26:24.811Z,65.17
2016-07-06T05:27:24.845Z,64.89
2016-07-06T05:28:24.827Z,65.37
2016-07-06T05:29:24.836Z,64.89
2016-07-06T05:30:24.860Z,64.98
2016-07-06T05:31:24.872Z,65.17
2016-07-06T05:32:24.890Z,65.17
2016-07-06T05:33:24.879Z,64.98
2016-07-06T05:34:24.894Z,64.98
2016-07-06T05:35:24.915Z,64.89
2016-07-06T05:36:24.903Z,64.98
2016-07-06T05:37:24.929Z,64.98
2016-07-06T05:38:24.926Z,65.17
2016-07-06T05:39:24.940Z,64.69
2016-07-06T05:40:24.934Z,64.98
2016-07-06T05:41:24.945Z,64.98
2016-07-06T05:42:24.963Z,65.17
2016-07-06T05:43:24.975Z,64.89
2016-07-06T05:44:24.986Z,64.98
2016-07-06T05:45:24.981Z,65.17
2016-07-06T05:46:25.015Z,64.98
2016-07-06T05:47:25.002Z,64.69
2016-07-06T05:48:25.015Z,65.17
2016-07-06T05:49:25.040Z,65.17
2016-07-06T05:50:25.043Z,64.98
2016-07-06T05:51:25.043Z,64.98
2016-07-06T05:52:25.073Z,64.69
2016-07-06T05:53:25.055Z,64.98
2016-07-06T05:54:25.073Z,65.08
2016-07-06T05:55:25.089Z,64.79
2016-07-06T05:56:25.090Z,65.17
2016-07-06T05:57:25.104Z,65.17
2016-07-06T05:58:25.115Z,64.98
2016-07-06T05:59:25.118Z,65.17
2016-07-06T06:00:25.127Z,65.27
2016-07-06T06:01:25.125Z,64.98
2016-07-06T06:02:25.134Z,65.17
2016-07-06T06:03:25.154Z,65.08
2016-07-06T06:04:25.160Z,65.17
2016-07-06T06:05:25.174Z,65.17
2016-07-06T06:06:25.180Z,65.17
2016-07-06T06:07:25.189Z,65.37
2016-07-06T06:08:25.196Z,64.59
2016-07-06T06:09:25.208Z,65.17
2016-07-06T06:10:25.223Z,64.79
2016-07-06T06:11:25.226Z,65.08
2016-07-06T06:12:25.241Z,64.5
2016-07-06T06:13:25.241Z,64.79
2016-07-06T06:14:25.253Z,64.69
2016-07-06T06:15:25.254Z,64.69
2016-07-06T06:16:25.282Z,64.79
2016-07-06T06:17:25.287Z,64.5
2016-07-06T06:18:25.293Z,64.89
2016-07-06T06:19:25.302Z,64.31
2016-07-06T06:20:25.296Z,64.31
2016-07-06T06:21:25.319Z,64.21
2016-07-06T06:22:25.327Z,64.4
2016-07-06T06:23:25.326Z,64.31
2016-07-06T06:24:25.349Z,64.01
2016-07-06T06:25:25.340Z,64.4
2016-07-06T06:26:25.360Z,64.5
2016-07-06T06:27:25.417Z,64.5
2016-07-06T06:28:25.385Z,64.01
2016-07-06T06:29:25.388Z,64.69
2016-07-06T06:30:25.400Z,64.31
2016-07-06T06:31:25.412Z,64.69
2016-07-06T06:32:25.421Z,64.4
2016-07-06T06:33:25.428Z,64.31
2016-07-06T06:34:25.438Z,64.4
2016-07-06T06:35:25.448Z,64.5
2016-07-06T06:36:25.456Z,64.21
2016-07-06T06:37:25.486Z,64.4
2016-07-06T06:38:25.466Z,63.63
2016-07-06T06:39:25.482Z,63.05
2016-07-06T06:40:25.479Z,62.86
2016-07-06T06:41:25.491Z,63.24
2016-07-06T06:42:25.516Z,62.76
2016-07-06T06:43:25.508Z,62.37
2016-07-06T06:44:25.522Z,61.89
2016-07-06T06:45:25.543Z,61.8
2016-07-06T06:46:25.547Z,61.7
2016-07-06T06:47:25.544Z,61.7
2016-07-06T06:48:25.545Z,61.8
2016-07-06T06:49:25.574Z,61.22
2016-07-06T06:50:25.578Z,61.41
2016-07-06T06:51:25.586Z,61.7
2016-07-06T06:52:25.608Z,61.7
2016-07-06T06:53:26.220Z,61.7
2016-07-06T06:54:25.626Z,61.99
2016-07-06T06:55:25.624Z,61.89
2016-07-06T06:56:25.637Z,61.89
2016-07-06T06:57:25.656Z,61.89
2016-07-06T06:58:25.646Z,62.08
2016-07-06T06:59:25.660Z,61.99
2016-07-06T07:00:25.658Z,62.08
2016-07-06T07:01:25.679Z,62.08
2016-07-06T07:02:25.681Z,62.28
2016-07-06T07:03:25.700Z,62.47
2016-07-06T07:04:25.710Z,62.28
2016-07-06T07:05:25.722Z,62.28
2016-07-06T07:06:25.726Z,62.47
2016-07-06T07:07:25.729Z,62.08
2016-07-06T07:08:25.742Z,62.47
2016-07-06T07:09:25.753Z,62.37
2016-07-06T07:10:25.740Z,62.28
2016-07-06T07:11:25.765Z,62.08
2016-07-06T07:12:25.788Z,62.28
2016-07-06T07:13:25.786Z,61.99
2016-07-06T07:14:25.788Z,62.28
2016-07-06T07:15:25.810Z,61.99
2016-07-06T07:16:25.814Z,62.08
2016-07-06T07:17:25.816Z,61.99
2016-07-06T07:18:25.844Z,61.7
2016-07-06T07:19:25.859Z,61.7
2016-07-06T07:20:25.847Z,61.99
2016-07-06T07:21:25.864Z,61.89
2016-07-06T07:22:25.881Z,62.02
2016-07-06T07:23:25.894Z,61.89
2016-07-06T07:24:25.898Z,61.92
2016-07-06T07:25:25.899Z,61.99
2016-07-06T07:26:25.897Z,61.73
2016-07-06T07:27:25.928Z,61.63
2016-07-06T07:28:25.921Z,61.8
2016-07-06T07:29:25.950Z,61.89
2016-07-06T07:30:25.950Z,61.63
2016-07-06T07:31:25.962Z,61.73
2016-07-06T07:32:25.961Z,61.99
2016-07-06T07:33:25.987Z,61.8
2016-07-06T07:34:25.995Z,61.6
2016-07-06T07:35:25.998Z,62.79
2016-07-06T07:36:26.017Z,62.66
2016-07-06T07:37:26.020Z,62.08
2016-07-06T07:38:26.020Z,62.79
2016-07-06T07:39:26.031Z,62.6
2016-07-06T07:40:26.057Z,62.5
2016-07-06T07:41:26.050Z,62.7
2016-07-06T07:42:26.049Z,62.7
2016-07-06T07:43:26.051Z,62.98
2016-07-06T07:44:26.070Z,62.79
2016-07-06T07:45:26.098Z,62.7
2016-07-06T07:46:26.083Z,62.79
2016-07-06T07:47:26.108Z,62.7
2016-07-06T07:48:26.123Z,62.7
2016-07-06T07:49:26.134Z,62.7
2016-07-06T07:50:26.146Z,62.4
2016-07-06T07:51:26.140Z,62.31
2016-07-06T07:52:26.143Z,62.5
2016-07-06T07:53:26.152Z,62.89
2016-07-06T07:54:26.179Z,62.31
2016-07-06T07:55:26.176Z,61.92
2016-07-06T07:56:26.200Z,62.02
2016-07-06T07:57:26.218Z,62.02
2016-07-06T07:58:26.197Z,61.73
2016-07-06T07:59:26.201Z,62.79
2016-07-06T08:00:26.247Z,62.7
2016-07-06T08:01:26.244Z,62.4
2016-07-06T08:02:26.243Z,62.31
2016-07-06T08:03:26.259Z,62.5
2016-07-06T08:04:26.275Z,62.02
2016-07-06T08:05:26.277Z,62.31
2016-07-06T08:06:26.280Z,62.4
2016-07-06T08:07:26.292Z,62.12
2016-07-06T08:08:26.299Z,62.02
2016-07-06T08:09:26.331Z,61.92
2016-07-06T08:10:26.316Z,61.54
2016-07-06T08:11:26.339Z,62.12
2016-07-06T08:12:26.336Z,61.63
2016-07-06T08:13:26.337Z,61.73
2016-07-06T08:14:26.367Z,61.05
2016-07-06T08:15:26.368Z,61.34
2016-07-06T08:16:26.374Z,61.83
2016-07-06T08:17:26.380Z,61.92
2016-07-06T08:18:26.383Z,61.44
2016-07-06T08:19:26.399Z,60.96
2016-07-06T08:20:26.399Z,60.38
2016-07-06T08:21:26.402Z,60.21
2016-07-06T08:22:26.413Z,59.99
2016-07-06T08:23:26.444Z,60.28
2016-07-06T08:24:26.443Z,59.7
2016-07-06T08:25:26.454Z,59.41
2016-07-06T08:26:26.469Z,60.28
2016-07-06T08:27:26.635Z,59.99
2016-07-06T08:28:26.470Z,60.09
2016-07-06T08:29:26.510Z,60.09
2016-07-06T08:30:26.502Z,59.99
2016-07-06T08:31:26.519Z,59.22
2016-07-06T08:32:26.532Z,59.41
2016-07-06T08:33:26.533Z,59.25
2016-07-06T08:34:26.538Z,59.22
2016-07-06T08:35:26.547Z,59.53
2016-07-06T08:36:26.551Z,59.34
2016-07-06T08:37:26.558Z,59.53
2016-07-06T08:38:26.566Z,58.95
2016-07-06T08:39:26.589Z,58.28
2016-07-06T08:40:26.589Z,58.37
2016-07-06T08:41:26.590Z,59.25
2016-07-06T08:42:26.624Z,59.34
2016-07-06T08:43:26.622Z,59.63
2016-07-06T08:44:26.621Z,59.53
2016-07-06T08:45:26.637Z,59.73
2016-07-06T08:46:26.637Z,60.41
2016-07-06T08:47:26.657Z,60.41
2016-07-06T08:48:26.680Z,60.41
2016-07-06T08:49:26.671Z,60.31
2016-07-06T08:50:26.691Z,60.21
2016-07-06T08:51:26.716Z,60.11
2016-07-06T08:52:26.709Z,60.02
2016-07-06T08:53:26.714Z,60.02
2016-07-06T08:54:26.717Z,60.02
2016-07-06T08:55:26.744Z,59.92
2016-07-06T08:56:26.760Z,60.11
2016-07-06T08:57:26.747Z,60.11
2016-07-06T08:58:26.779Z,59.73
2016-07-06T08:59:26.791Z,59.83
2016-07-06T09:00:26.784Z,59.83
2016-07-06T09:01:26.801Z,59.73
2016-07-06T09:02:26.814Z,59.73
2016-07-06T09:03:26.818Z,59.92
2016-07-06T09:04:26.828Z,60.02
2016-07-06T09:05:26.842Z,60.02
2016-07-06T09:06:26.855Z,60.02
2016-07-06T09:07:26.843Z,60.02
2016-07-06T09:08:26.868Z,59.86
2016-07-06T09:09:26.873Z,59.76
2016-07-06T09:10:26.867Z,60.11
2016-07-06T09:11:26.890Z,59.83
2016-07-06T09:12:26.892Z,59.73
2016-07-06T09:13:26.908Z,60.21
2016-07-06T09:14:26.932Z,59.44
2016-07-06T09:15:26.913Z,59.73
2016-07-06T09:16:26.936Z,59.25
2016-07-06T09:17:26.934Z,59.44
2016-07-06T09:18:26.963Z,59.25
2016-07-06T09:19:26.980Z,59.25
2016-07-06T09:20:26.982Z,59.34
2016-07-06T09:21:26.998Z,59.44
2016-07-06T09:22:27.006Z,58.95
2016-07-06T09:23:26.999Z,58.86
2016-07-06T09:24:27.024Z,58.57
2016-07-06T09:25:27.023Z,59.05
2016-07-06T09:26:27.023Z,58.95
2016-07-06T09:27:27.057Z,59.34
2016-07-06T09:28:27.045Z,59.05
2016-07-06T09:29:27.075Z,58.95
2016-07-06T09:30:27.073Z,59.15
2016-07-06T09:31:27.096Z,58.37
2016-07-06T09:32:27.073Z,58.09
2016-07-06T09:33:27.098Z,58.28
2016-07-06T09:34:27.116Z,58.28
2016-07-06T09:35:27.134Z,58.6
2016-07-06T09:36:27.114Z,58.37
2016-07-06T09:37:27.155Z,58.57
2016-07-06T09:38:27.142Z,58.57
2016-07-06T09:39:27.166Z,58.98
2016-07-06T09:40:27.175Z,59.18
2016-07-06T09:41:27.177Z,59.08
2016-07-06T09:42:27.181Z,58.98
2016-07-06T09:43:27.201Z,58.98
2016-07-06T09:44:27.212Z,59.28
2016-07-06T09:45:27.212Z,58.89
2016-07-06T09:46:27.228Z,58.6
2016-07-06T09:47:27.227Z,58.8
2016-07-06T09:48:27.234Z,58.6
2016-07-06T09:49:27.243Z,58.6
2016-07-06T09:50:27.264Z,58.8
2016-07-06T09:51:27.280Z,58.98
2016-07-06T09:52:27.286Z,59.08
2016-07-06T09:53:27.282Z,58.6
2016-07-06T09:54:27.306Z,58.8
2016-07-06T09:55:27.317Z,59.18
2016-07-06T09:56:27.319Z,59.08
2016-07-06T09:57:27.325Z,58.8
2016-07-06T09:58:27.336Z,58.89
2016-07-06T09:59:27.364Z,59.28
2016-07-06T10:00:27.351Z,59.28
2016-07-06T10:01:27.372Z,58.89
2016-07-06T10:02:27.385Z,58.89
2016-07-06T10:03:27.393Z,59.28
2016-07-06T10:04:27.397Z,59.38
2016-07-06T10:05:27.412Z,58.98
2016-07-06T10:06:27.401Z,59.28
2016-07-06T10:07:27.418Z,59.28
2016-07-06T10:08:27.422Z,59.11
2016-07-06T10:09:27.428Z,59.18
2016-07-06T10:10:27.438Z,59.18
2016-07-06T10:11:27.460Z,59.18
2016-07-06T10:12:27.477Z,59.38
2016-07-06T10:13:27.479Z,59.38
2016-07-06T10:14:27.483Z,59.08
2016-07-06T10:15:27.511Z,59.18
2016-07-06T10:16:27.510Z,59.47
2016-07-06T10:17:27.510Z,59.28
2016-07-06T10:18:27.514Z,59.18
2016-07-06T10:19:27.535Z,59.38
2016-07-06T10:20:27.554Z,58.98
2016-07-06T10:21:27.561Z,58.98
2016-07-06T10:22:27.560Z,59.11
2016-07-06T10:23:27.598Z,58.63
2016-07-06T10:24:27.579Z,58.98
2016-07-06T10:25:27.601Z,59.11
2016-07-06T10:26:27.622Z,59.08
2016-07-06T10:27:27.611Z,58.4
2016-07-06T10:28:27.611Z,58.6
2016-07-06T10:29:27.636Z,58.02
2016-07-06T10:30:27.647Z,58.44
2016-07-06T10:31:27.648Z,58.14
2016-07-06T10:32:27.670Z,58.63
2016-07-06T10:33:27.694Z,58.44
2016-07-06T10:34:27.686Z,58.53
2016-07-06T10:35:27.691Z,58.53
2016-07-06T10:36:27.719Z,58.63
2016-07-06T10:37:27.726Z,58.53
2016-07-06T10:38:27.718Z,58.63
2016-07-06T10:39:27.726Z,58.63
2016-07-06T10:40:27.743Z,58.82
2016-07-06T10:41:27.742Z,58.63
2016-07-06T10:42:27.779Z,58.63
2016-07-06T10:43:27.789Z,58.63
2016-07-06T10:44:27.790Z,58.82
2016-07-06T10:45:27.786Z,58.63
2016-07-06T10:46:27.792Z,58.82
2016-07-06T10:47:27.823Z,58.53
2016-07-06T10:48:27.808Z,58.44
2016-07-06T10:49:27.829Z,58.53
2016-07-06T10:50:27.842Z,58.53
2016-07-06T10:51:27.855Z,58.72
2016-07-06T10:52:27.871Z,58.72
2016-07-06T10:53:27.865Z,58.53
2016-07-06T10:54:27.873Z,58.63
2016-07-06T10:55:27.899Z,58.63
2016-07-06T10:56:28.498Z,58.63
2016-07-06T10:57:27.911Z,58.63
2016-07-06T10:58:27.911Z,58.44
2016-07-06T10:59:27.927Z,58.14
2016-07-06T11:00:27.947Z,58.24
2016-07-06T11:01:27.928Z,58.24
2016-07-06T11:02:27.962Z,58.47
2016-07-06T11:03:27.957Z,58.37
2016-07-06T11:04:27.984Z,58.37
2016-07-06T11:05:27.985Z,58.27
2016-07-06T11:06:27.982Z,58.37
2016-07-06T11:07:27.996Z,58.37
2016-07-06T11:08:28.013Z,58.37
2016-07-06T11:09:28.004Z,58.27
2016-07-06T11:10:28.039Z,58.37
2016-07-06T11:11:28.025Z,58.27
2016-07-06T11:12:28.044Z,58.75
2016-07-06T11:13:28.063Z,58.72
2016-07-06T11:14:28.066Z,58.04
2016-07-06T11:15:28.072Z,58.44
2016-07-06T11:16:28.085Z,58.14
2016-07-06T11:17:28.086Z,58.37
2016-07-06T11:18:28.095Z,58.37
2016-07-06T11:19:28.103Z,58.82
2016-07-06T11:20:28.106Z,58.63
2016-07-06T11:21:28.130Z,58.07
2016-07-06T11:22:28.138Z,58.27
2016-07-06T11:23:28.153Z,57.01
2016-07-06T11:24:28.152Z,55.43
2016-07-06T11:25:28.153Z,54.17
2016-07-06T11:26:28.186Z,53.59
2016-07-06T11:27:28.207Z,53.41
2016-07-06T11:28:28.180Z,52.92
2016-07-06T11:29:28.211Z,53.31
2016-07-06T11:30:28.209Z,52.82
2016-07-06T11:31:28.210Z,52.05
2016-07-06T11:32:28.220Z,52.34
2016-07-06T11:33:28.239Z,51.95
2016-07-06T11:34:28.258Z,52.14
2016-07-06T11:35:28.233Z,51.66
2016-07-06T11:36:28.263Z,51.66
2016-07-06T11:37:28.274Z,51.76
2016-07-06T11:38:28.267Z,51.76
2016-07-06T11:39:28.288Z,51.56
2016-07-06T11:40:28.289Z,51.76
2016-07-06T11:41:28.293Z,51.76
2016-07-06T11:42:28.316Z,51.76
2016-07-06T11:43:28.327Z,51.76
2016-07-06T11:44:28.323Z,52.05
2016-07-06T11:45:28.336Z,52.14
2016-07-06T11:46:28.333Z,52.24
2016-07-06T11:47:28.345Z,52.14
2016-07-06T11:48:28.353Z,52.44
2016-07-06T11:49:28.369Z,51.76
2016-07-06T11:50:28.379Z,51.86
2016-07-06T11:51:28.370Z,51.54
2016-07-06T11:52:28.400Z,51.64
2016-07-06T11:53:28.387Z,51.54
2016-07-06T11:54:28.411Z,51.37
2016-07-06T11:55:28.409Z,51.25
2016-07-06T11:56:28.417Z,51.35
2016-07-06T11:57:28.443Z,51.54
2016-07-06T11:58:28.430Z,51.47
2016-07-06T11:59:28.443Z,51.47
2016-07-06T12:00:28.469Z,50.89
2016-07-06T12:01:28.457Z,51.08
2016-07-06T12:02:28.470Z,51.18
2016-07-06T12:03:28.483Z,51.15
2016-07-06T12:04:28.489Z,51.18
2016-07-06T12:05:28.518Z,51.18
2016-07-06T12:06:28.511Z,51.37
2016-07-06T12:07:28.502Z,51.56
2016-07-06T12:08:28.527Z,51.56
2016-07-06T12:09:28.544Z,51.56
2016-07-06T12:10:28.551Z,51.56
2016-07-06T12:11:28.559Z,51.56
2016-07-06T12:12:28.598Z,51.56
2016-07-06T12:13:28.563Z,51.76
2016-07-06T12:14:28.595Z,51.93
2016-07-06T12:15:28.575Z,51.56
2016-07-06T12:16:28.586Z,51.56
2016-07-06T12:17:28.611Z,51.37
2016-07-06T12:18:28.621Z,51.37
2016-07-06T12:19:28.640Z,51.35
2016-07-06T12:20:28.662Z,51.54
2016-07-06T12:21:28.626Z,51.54
2016-07-06T12:22:28.653Z,51.35
2016-07-06T12:23:28.664Z,51.54
2016-07-06T12:24:28.675Z,51.44
2016-07-06T12:25:28.683Z,51.35
2016-07-06T12:26:28.682Z,51.73
2016-07-06T12:27:28.691Z,51.73
2016-07-06T12:28:28.695Z,52.31
2016-07-06T12:29:28.708Z,52.22
2016-07-06T12:30:28.731Z,51.86
2016-07-06T12:31:28.736Z,51.66
2016-07-06T12:32:28.740Z,51.95
2016-07-06T12:33:28.768Z,51.86
2016-07-06T12:34:28.758Z,51.86
2016-07-06T12:35:28.781Z,51.66
2016-07-06T12:36:28.753Z,51.76
2016-07-06T12:37:28.797Z,51.37
2016-07-06T12:38:28.789Z,51.28
2016-07-06T12:39:28.783Z,51.08
2016-07-06T12:40:28.820Z,51.08
2016-07-06T12:41:28.816Z,50.79
2016-07-06T12:42:28.824Z,50.62
2016-07-06T12:43:28.830Z,50.5
2016-07-06T12:44:28.854Z,50.6
2016-07-06T12:45:28.844Z,50.5
2016-07-06T12:46:28.877Z,50.24
2016-07-06T12:47:28.872Z,50.52
2016-07-06T12:48:28.872Z,50.24
2016-07-06T12:49:28.881Z,50.24
2016-07-06T12:50:28.909Z,50.24
2016-07-06T12:51:28.897Z,50.04
2016-07-06T12:52:28.930Z,50.24
2016-07-06T12:53:28.934Z,50.62
2016-07-06T12:54:28.935Z,50.62